Time;durP1;ratioP1;P1;durP2;ratioP2;P2;SDS_P1;SDS_P2;PMS_P1;PMS_P2;Temp;Humidity;BMP_temperature;BMP_pressure;BME280_temperature;BME280_humidity;BME280_pressure;Samples;Min_cycle;Max_cycle;Signal;HPM_P1;HPM_P2
2022/09/15 00:02:09;;;;;;;;;;;;;;;21.87;59.31;99820.69;5016223;28;4139;-58
2022/09/15 00:04:35;;;;;;;;;;;;;;;21.88;59.00;99822.19;5024899;28;4211;-58
2022/09/15 00:07:01;;;;;;;;;;;;;;;21.87;59.13;99820.69;5036029;28;4291;-58
2022/09/15 00:09:28;;;;;;;;;;;;;;;21.85;59.25;99823.56;5032187;28;4216;-58
2022/09/15 00:11:54;;;;;;;;;;;;;;;21.85;59.30;99817.03;5036908;28;5242;-58
2022/09/15 00:14:20;;;;;;;;;;;;;;;21.86;59.18;99818.53;5035358;28;4154;-58
2022/09/15 00:16:47;;;;;;;;;;;;;;;21.85;59.19;99812.03;5038656;28;4289;-58
2022/09/15 00:19:13;;;;;;;;;;;;;;;21.85;59.11;99805.50;5039361;28;4026;-58
2022/09/15 00:21:40;;;;;;;;;;;;;;;21.84;59.18;99804.78;5036194;28;4092;-58
2022/09/15 00:24:06;;;;;;;;;;;;;;;21.84;59.40;99809.81;5035919;28;4278;-58
2022/09/15 00:26:32;;;;;;;;;;;;;;;21.84;59.17;99806.94;5035218;28;4228;-58
2022/09/15 00:28:58;;;;;;;;;;;;;;;21.84;59.33;99806.94;5037089;28;4183;-58
2022/09/15 00:31:27;;;;;;;;;;;;;;;21.85;59.33;99800.50;5036819;28;4224;-58
2022/09/15 00:33:55;;;;;;;;;;;;;;;21.86;59.39;99807.00;5037765;28;4168;-57
2022/09/15 00:36:22;;;;;;;;;;;;;;;21.84;59.30;99809.81;5039777;28;5447;-58
2022/09/15 00:38:48;;;;;;;;;;;;;;;21.84;59.22;99815.59;5037984;28;4130;-58
2022/09/15 00:41:15;;;;;;;;;;;;;;;21.83;59.13;99814.84;5037233;28;4230;-58
2022/09/15 00:43:44;;;;;;;;;;;;;;;21.84;59.09;99815.59;5035704;28;4143;-58
2022/09/15 00:46:11;;;;;;;;;;;;;;;21.84;59.36;99815.59;5033686;28;5235;-58
2022/09/15 00:48:43;;;;;;;;;;;;;;;21.84;59.31;99815.59;5034657;28;4257;-58
2022/09/15 00:51:09;;;;;;;;;;;;;;;21.85;59.17;99822.81;5049839;28;5258;-59
2022/09/15 00:53:35;;;;;;;;;;;;;;;21.84;59.30;99818.47;5040882;28;4088;-58
2022/09/15 00:56:02;;;;;;;;;;;;;;;21.85;59.31;99811.28;5032605;28;5446;-58
2022/09/15 00:58:29;;;;;;;;;;;;;;;21.84;59.15;99815.59;5035745;28;5167;-58
2022/09/15 01:00:57;;;;;;;;;;;;;;;21.84;59.26;99815.59;5044376;28;4223;-58
2022/09/15 01:03:23;;;;;;;;;;;;;;;21.84;59.09;99807.66;5042811;28;5352;-58
2022/09/15 01:05:52;;;;;;;;;;;;;;;21.83;59.13;99814.84;5034102;28;4240;-58
2022/09/15 01:08:25;;;;;;;;;;;;;;;21.82;59.34;99812.66;5047215;28;4629;-59
2022/09/15 01:10:52;;;;;;;;;;;;;;;21.83;59.28;99814.09;5046615;28;5310;-58
2022/09/15 01:13:18;;;;;;;;;;;;;;;21.84;59.00;99815.59;5037111;28;4276;-59
2022/09/15 01:16:04;;;;;;;;;;;;;;;21.82;59.22;99812.66;5037233;28;4263;-58
2022/09/15 01:18:50;;;;;;;;;;;;;;;21.82;59.13;99812.66;5045129;28;5478;-59
2022/09/15 01:21:33;;;;;;;;;;;;;;;21.82;58.98;99816.25;5048210;28;4305;-59
2022/09/15 01:24:19;;;;;;;;;;;;;;;21.82;59.02;99821.31;5037146;28;4237;-58
2022/09/15 01:26:53;;;;;;;;;;;;;;;21.81;59.18;99823.47;5034176;28;4225;-58
2022/09/15 01:29:37;;;;;;;;;;;;;;;21.81;58.84;99819.84;5044685;28;4051;-58
2022/09/15 01:35:07;;;;;;;;;;;;;;;21.80;58.84;99819.09;5036531;28;4405;-59
2022/09/15 01:37:35;;;;;;;;;;;;;;;21.81;59.12;99831.38;5033696;28;4160;-58
2022/09/15 01:40:02;;;;;;;;;;;;;;;21.81;58.82;99831.38;5041960;28;4261;-58
2022/09/15 01:42:28;;;;;;;;;;;;;;;21.80;58.85;99827.00;5030167;28;4209;-59
2022/09/15 01:44:56;;;;;;;;;;;;;;;21.80;58.87;99815.47;5032318;28;4199;-58
2022/09/15 01:47:23;;;;;;;;;;;;;;;21.79;58.82;99820.53;5016229;28;4185;-58
2022/09/15 01:49:50;;;;;;;;;;;;;;;21.79;58.95;99819.78;5013930;28;4045;-58
2022/09/15 01:52:16;;;;;;;;;;;;;;;21.79;59.09;99825.56;5046378;28;4150;-58
2022/09/15 01:54:47;;;;;;;;;;;;;;;21.79;58.92;99823.41;5019914;28;4290;-58
2022/09/15 01:57:20;;;;;;;;;;;;;;;21.80;58.94;99821.25;5031422;28;4390;-58
2022/09/15 01:59:46;;;;;;;;;;;;;;;21.79;58.80;99819.78;5025992;28;5406;-58
2022/09/15 02:02:14;;;;;;;;;;;;;;;21.78;58.84;99824.81;5012503;28;4165;-58
2022/09/15 02:04:46;;;;;;;;;;;;;;;21.80;59.09;99827.00;5047631;28;4228;-58
2022/09/15 02:07:14;;;;;;;;;;;;;;;21.78;59.12;99821.19;5011797;28;4909;-58
2022/09/15 02:09:47;;;;;;;;;;;;;;;21.78;59.10;99818.31;5016438;28;4260;-58
2022/09/15 02:12:18;;;;;;;;;;;;;;;21.78;59.10;99824.81;5015036;28;4163;-58
2022/09/15 02:14:54;;;;;;;;;;;;;;;21.77;58.99;99816.88;5045051;28;4271;-58
2022/09/15 02:17:21;;;;;;;;;;;;;;;21.78;59.12;99819.03;5036488;28;4190;-58
2022/09/15 02:19:52;;;;;;;;;;;;;;;21.77;59.12;99829.13;5034873;28;5472;-58
2022/09/15 02:22:22;;;;;;;;;;;;;;;21.78;58.99;99829.84;5034888;28;4196;-58
2022/09/15 02:24:56;;;;;;;;;;;;;;;21.77;59.12;99831.28;5047766;28;5484;-58
2022/09/15 02:27:23;;;;;;;;;;;;;;;21.77;58.83;99828.38;5036687;28;5487;-58
2022/09/15 02:29:50;;;;;;;;;;;;;;;21.76;59.01;99827.63;5051323;28;4221;-58
2022/09/15 02:32:17;;;;;;;;;;;;;;;21.75;58.91;99821.16;5049133;28;4311;-58
2022/09/15 02:34:44;;;;;;;;;;;;;;;21.75;59.02;99824.03;5050915;28;5343;-58
2022/09/15 02:37:11;;;;;;;;;;;;;;;21.75;58.78;99824.03;5045990;28;4190;-58
2022/09/15 02:39:38;;;;;;;;;;;;;;;21.74;58.70;99818.97;5051863;28;4234;-58
2022/09/15 02:42:05;;;;;;;;;;;;;;;21.75;59.00;99823.31;5049326;28;4183;-58
2022/09/15 02:44:31;;;;;;;;;;;;;;;21.75;58.91;99823.31;5037836;28;5326;-58
2022/09/15 02:46:58;;;;;;;;;;;;;;;21.73;59.02;99823.97;5034994;28;4184;-58
2022/09/15 02:49:24;;;;;;;;;;;;;;;21.73;58.88;99821.09;5054381;28;4252;-58
2022/09/15 02:51:50;;;;;;;;;;;;;;;21.75;58.94;99826.91;5041532;28;4277;-58
2022/09/15 02:54:17;;;;;;;;;;;;;;;21.74;58.66;99828.34;5041409;28;4162;-58
2022/09/15 02:56:44;;;;;;;;;;;;;;;21.74;58.75;99824.72;5037901;28;4299;-58
2022/09/15 02:59:10;;;;;;;;;;;;;;;21.74;58.95;99828.34;5039311;28;4182;-58
2022/09/15 03:01:37;;;;;;;;;;;;;;;21.74;58.77;99828.34;5037396;28;4277;-58
2022/09/15 03:04:04;;;;;;;;;;;;;;;21.73;58.98;99829.75;5034234;28;5287;-58
2022/09/15 03:06:33;;;;;;;;;;;;;;;21.73;58.83;99818.22;5034722;28;4279;-58
2022/09/15 03:09:01;;;;;;;;;;;;;;;21.73;58.93;99826.84;5036910;28;4223;-58
2022/09/15 03:11:27;;;;;;;;;;;;;;;21.72;58.92;99818.91;5037262;28;4246;-58
2022/09/15 03:13:55;;;;;;;;;;;;;;;21.72;58.93;99819.63;5035929;28;4186;-58
2022/09/15 03:16:21;;;;;;;;;;;;;;;21.73;58.97;99818.22;5034422;28;4148;-58
2022/09/15 03:18:47;;;;;;;;;;;;;;;21.72;58.90;99822.53;5035712;28;4439;-58
2022/09/15 03:21:14;;;;;;;;;;;;;;;21.71;58.88;99809.50;5038286;28;4191;-58
2022/09/15 03:23:40;;;;;;;;;;;;;;;21.72;58.70;99822.53;5037543;28;4210;-58
2022/09/15 03:26:07;;;;;;;;;;;;;;;21.71;58.80;99818.16;5031671;28;5219;-58
2022/09/15 03:28:34;;;;;;;;;;;;;;;21.71;58.79;99826.81;5038222;28;4235;-57
2022/09/15 03:31:01;;;;;;;;;;;;;;;21.71;58.83;99815.28;5035861;28;4369;-58
2022/09/15 03:33:28;;;;;;;;;;;;;;;21.71;58.44;99815.28;5039984;28;5316;-58
2022/09/15 03:35:54;;;;;;;;;;;;;;;21.70;58.77;99822.47;5036444;28;4372;-58
2022/09/15 03:38:21;;;;;;;;;;;;;;;21.71;58.47;99826.06;5037576;28;4155;-58
2022/09/15 03:41:06;;;;;;;;;;;;;;;21.70;58.71;99825.34;5037855;28;4157;-58
2022/09/15 03:43:32;;;;;;;;;;;;;;;21.69;58.74;99823.91;5017557;28;4186;-58
2022/09/15 03:45:59;;;;;;;;;;;;;;;21.69;58.51;99818.13;5014978;28;4200;-57
2022/09/15 03:48:25;;;;;;;;;;;;;;;21.69;58.70;99818.13;5018739;28;4175;-58
2022/09/15 03:50:52;;;;;;;;;;;;;;;21.70;58.43;99815.97;5017274;28;4183;-58
2022/09/15 03:53:19;;;;;;;;;;;;;;;21.71;58.56;99826.06;5017407;28;6363;-58
2022/09/15 03:55:45;;;;;;;;;;;;;;;21.70;58.51;99815.97;5017971;28;4274;-58
2022/09/15 03:58:11;;;;;;;;;;;;;;;21.68;58.64;99813.78;5016936;28;5334;-58
2022/09/15 04:00:38;;;;;;;;;;;;;;;21.68;58.58;99819.53;5015108;28;5266;-58
2022/09/15 04:03:05;;;;;;;;;;;;;;;21.68;58.38;99822.41;5013196;28;5256;-58
2022/09/15 04:05:31;;;;;;;;;;;;;;;21.68;58.62;99819.53;5016928;28;4197;-58
2022/09/15 04:07:58;;;;;;;;;;;;;;;21.68;58.49;99815.94;5013528;28;4227;-58
2022/09/15 04:10:24;;;;;;;;;;;;;;;21.67;58.68;99812.31;5019219;28;4225;-58
2022/09/15 04:12:51;;;;;;;;;;;;;;;21.66;58.49;99813.72;5017007;28;4238;-59
2022/09/15 04:15:18;;;;;;;;;;;;;;;21.66;58.48;99816.59;5016945;28;4182;-59
2022/09/15 04:17:44;;;;;;;;;;;;;;;21.67;58.63;99814.44;5014521;28;4237;-60
2022/09/15 04:20:10;;;;;;;;;;;;;;;21.67;58.81;99814.44;5018172;28;5446;-59
2022/09/15 04:22:37;;;;;;;;;;;;;;;21.66;58.85;99813.72;5016699;28;5375;-59
2022/09/15 04:25:03;;;;;;;;;;;;;;;21.66;58.69;99813.00;5014842;28;4177;-59
2022/09/15 04:27:33;;;;;;;;;;;;;;;21.66;58.52;99813.72;5015834;28;4175;-60
2022/09/15 04:29:59;;;;;;;;;;;;;;;21.65;58.73;99812.28;5018169;28;4194;-60
2022/09/15 04:32:27;;;;;;;;;;;;;;;21.64;58.59;99810.78;5013806;28;4183;-59
2022/09/15 04:34:53;;;;;;;;;;;;;;;21.66;58.73;99813.00;5010691;28;4227;-59
2022/09/15 04:37:19;;;;;;;;;;;;;;;21.63;58.89;99803.56;5006041;28;4234;-66
2022/09/15 04:39:46;;;;;;;;;;;;;;;21.63;58.92;99817.97;5016346;28;4147;-52
2022/09/15 04:42:13;;;;;;;;;;;;;;;21.41;57.61;99811.66;5011441;28;4375;-57
2022/09/15 04:44:39;;;;;;;;;;;;;;;21.47;58.22;99809.66;5011841;28;5496;-59
2022/09/15 04:47:06;;;;;;;;;;;;;;;21.55;58.41;99809.13;5011032;28;4221;-58
2022/09/15 04:49:32;;;;;;;;;;;;;;;21.64;58.28;99810.06;5016262;28;4221;-58
2022/09/15 04:51:58;;;;;;;;;;;;;;;21.69;57.90;99812.38;5002671;28;4185;-58
2022/09/15 04:54:25;;;;;;;;;;;;;;;21.71;57.99;99814.56;5013844;28;4218;-58
2022/09/15 04:56:51;;;;;;;;;;;;;;;21.66;58.40;99813.72;5013604;28;4311;-58
2022/09/15 04:59:18;;;;;;;;;;;;;;;21.66;58.53;99810.84;5019133;28;4324;-59
2022/09/15 05:01:44;;;;;;;;;;;;;;;21.67;58.61;99809.44;5027800;28;6269;-59
2022/09/15 05:04:11;;;;;;;;;;;;;;;21.69;58.55;99811.63;5036950;28;4059;-59
2022/09/15 05:06:37;;;;;;;;;;;;;;;21.70;58.53;99813.81;5034864;28;4071;-59
2022/09/15 05:09:04;;;;;;;;;;;;;;;21.70;58.53;99813.09;5038019;28;4140;-59
2022/09/15 05:11:35;;;;;;;;;;;;;;;21.71;58.45;99814.56;5034012;28;4217;-58
2022/09/15 05:14:02;;;;;;;;;;;;;;;21.69;58.77;99806.63;5032654;28;4144;-58
2022/09/15 05:16:28;;;;;;;;;;;;;;;21.69;58.93;99806.63;5036622;28;3972;-58
2022/09/15 05:18:55;;;;;;;;;;;;;;;21.70;58.86;99808.06;5035316;28;4172;-58
2022/09/15 05:21:22;;;;;;;;;;;;;;;21.70;58.62;99813.81;5037677;28;4244;-58
2022/09/15 05:23:48;;;;;;;;;;;;;;;21.71;58.73;99809.50;5036136;28;4209;-58
2022/09/15 05:26:15;;;;;;;;;;;;;;;21.69;59.50;99812.38;5031468;28;5353;-67
2022/09/15 05:28:41;;;;;;;;;;;;;;;22.11;60.70;99809.00;5033748;28;4240;-65
2022/09/15 05:31:09;;;;;;;;;;;;;;;22.26;59.64;99806.47;5014109;28;4067;-65
2022/09/15 05:33:36;;;;;;;;;;;;;;;22.34;59.42;99818.19;5002698;28;4472;-68
2022/09/15 05:36:02;;;;;;;;;;;;;;;22.40;58.85;99809.66;5033730;28;4286;-67
2022/09/15 05:38:29;;;;;;;;;;;;;;;22.42;58.54;99812.56;5014025;28;4218;-67
2022/09/15 05:41:02;;;;;;;;;;;;;;;22.47;58.14;99817.03;5015806;28;4175;-68
2022/09/15 05:43:32;;;;;;;;;;;;;;;22.46;57.86;99824.22;5019807;28;4219;-69
2022/09/15 05:45:59;;;;;;;;;;;;;;;22.48;58.11;99817.75;5019071;28;4249;-66
2022/09/15 05:48:25;;;;;;;;;;;;;;;22.55;57.75;99831.63;5017071;28;4236;-61
2022/09/15 05:50:52;;;;;;;;;;;;;;;22.56;58.15;99832.34;5016145;28;4176;-70
2022/09/15 05:53:18;;;;;;;;;;;;;;;22.58;57.97;99836.00;5013160;28;4238;-66
2022/09/15 05:55:45;;;;;;;;;;;;;;;22.61;57.87;99828.13;5012266;28;4213;-66
2022/09/15 05:58:11;;;;;;;;;;;;;;;22.64;57.67;99820.97;5015568;28;4216;-68
2022/09/15 06:00:37;;;;;;;;;;;;;;;22.54;58.16;99824.38;5016849;28;5461;-71
2022/09/15 06:03:04;;;;;;;;;;;;;;;22.56;58.15;99823.69;5016362;28;4069;-67
2022/09/15 06:05:30;;;;;;;;;;;;;;;22.63;58.03;99824.53;5007210;28;5325;-68
2022/09/15 06:07:56;;;;;;;;;;;;;;;22.69;57.76;99816.75;5011370;28;4214;-66
2022/09/15 06:10:25;;;;;;;;;;;;;;;22.68;57.64;99823.22;5013009;28;4202;-67
2022/09/15 06:12:52;;;;;;;;;;;;;;;22.71;57.34;99831.22;5017252;28;4189;-68
2022/09/15 06:15:19;;;;;;;;;;;;;;;22.72;57.34;99831.94;5017710;28;4091;-63
2022/09/15 06:17:45;;;;;;;;;;;;;;;22.69;57.73;99830.44;5027917;28;4146;-65
2022/09/15 06:20:11;;;;;;;;;;;;;;;22.69;57.33;99828.28;5034423;28;4184;-70
2022/09/15 06:22:38;;;;;;;;;;;;;;;22.61;58.19;99827.38;5032535;28;4228;-71
2022/09/15 06:25:04;;;;;;;;;;;;;;;22.56;57.78;99832.34;5035244;28;5472;-71
2022/09/15 06:27:31;;;;;;;;;;;;;;;22.52;58.22;99827.22;5032877;28;5250;-71
2022/09/15 06:29:57;;;;;;;;;;;;;;;22.66;57.68;99828.94;5030662;28;4577;-70
2022/09/15 06:32:23;;;;;;;;;;;;;;;22.59;58.02;99825.94;5033743;28;4253;-68
2022/09/15 06:34:49;;;;;;;;;;;;;;;22.50;57.52;99829.34;5033329;28;4235;-67
2022/09/15 06:37:16;;;;;;;;;;;;;;;22.45;57.51;99830.66;5035464;28;4183;-66
2022/09/15 06:39:43;;;;;;;;;;;;;;;22.44;57.14;99829.94;5033902;28;4153;-70
2022/09/15 06:42:09;;;;;;;;;;;;;;;22.47;57.17;99828.56;5034561;28;4279;-69
2022/09/15 06:44:40;;;;;;;;;;;;;;;22.49;56.35;99831.47;5036869;28;4185;-70
2022/09/15 06:47:06;;;;;;;;;;;;;;;22.49;56.42;99834.34;5037093;28;4211;-65
2022/09/15 06:49:32;;;;;;;;;;;;;;;22.45;56.12;99837.19;5034988;28;4236;-67
2022/09/15 06:52:01;;;;;;;;;;;;;;;22.48;56.01;99832.91;5034753;28;5377;-68
2022/09/15 06:54:27;;;;;;;;;;;;;;;22.46;55.81;99829.25;5032954;28;4407;-68
2022/09/15 06:56:53;;;;;;;;;;;;;;;22.45;55.92;99842.19;5025496;28;4237;-66
2022/09/15 06:59:22;;;;;;;;;;;;;;;22.41;55.65;99839.97;5026510;28;5264;-70
2022/09/15 07:01:53;;;;;;;;;;;;;;;22.43;55.28;99842.91;5037484;28;5308;-64
2022/09/15 07:04:19;;;;;;;;;;;;;;;22.27;55.59;99843.28;5037152;28;4176;-59
2022/09/15 07:06:45;;;;;;;;;;;;;;;22.29;55.26;99845.47;5037856;28;4401;-64
2022/09/15 07:09:12;;;;;;;;;;;;;;;22.55;54.51;99846.03;5038680;28;4175;-64
2022/09/15 07:11:38;;;;;;;;;;;;;;;22.61;54.33;99856.22;5037546;28;4188;-69
2022/09/15 07:14:04;;;;;;;;;;;;;;;22.35;54.33;99860.00;5031926;28;4250;-67
2022/09/15 07:16:31;;;;;;;;;;;;;;;22.45;54.51;99863.13;5033080;28;4666;-65
2022/09/15 07:19:00;;;;;;;;;;;;;;;22.29;54.89;99869.28;5027892;28;4970;-65
2022/09/15 07:21:26;;;;;;;;;;;;;;;22.30;54.03;99858.47;5035106;28;4188;-65
2022/09/15 07:23:52;;;;;;;;;;;;;;;22.25;53.41;99862.69;5035747;28;4245;-67
2022/09/15 07:26:20;;;;;;;;;;;;;;;21.86;53.87;99865.34;5043820;28;5460;-69
2022/09/15 07:28:48;;;;;;;;;;;;;;;21.69;54.52;99867.13;5030261;28;4323;-64
2022/09/15 07:31:15;;;;;;;;;;;;;;;22.09;53.58;99875.28;5036916;28;4766;-60
2022/09/15 07:33:41;;;;;;;;;;;;;;;22.14;53.34;99871.06;5034827;28;5328;-61
2022/09/15 07:36:08;;;;;;;;;;;;;;;21.80;53.26;99873.84;5039968;28;4349;-59
2022/09/15 07:38:34;;;;;;;;;;;;;;;21.58;53.91;99874.03;5032376;28;4234;-59
2022/09/15 07:41:01;;;;;;;;;;;;;;;21.59;53.78;99869.72;5024397;28;4239;-58
2022/09/15 07:43:27;;;;;;;;;;;;;;;21.57;53.90;99881.19;5014125;28;5558;-60
2022/09/15 07:45:57;;;;;;;;;;;;;;;21.71;54.09;99884.44;5015483;28;4240;-60
2022/09/15 07:48:23;;;;;;;;;;;;;;;21.81;53.73;99871.72;5016432;28;5416;-60
2022/09/15 07:50:51;;;;;;;;;;;;;;;21.87;54.05;99881.22;5016151;28;4389;-57
2022/09/15 07:53:18;;;;;;;;;;;;;;;21.88;54.76;99876.22;5017352;28;5215;-60
2022/09/15 07:55:44;;;;;;;;;;;;;;;21.87;55.32;99889.88;5023173;28;5255;-60
2022/09/15 07:58:10;;;;;;;;;;;;;;;21.90;54.78;99884.91;5017007;28;4217;-58
2022/09/15 08:00:38;;;;;;;;;;;;;;;21.88;55.67;99885.59;5019339;28;5039;-60
2022/09/15 08:03:04;;;;;;;;;;;;;;;21.88;55.74;99881.97;5007160;28;5233;-57
2022/09/15 08:05:31;;;;;;;;;;;;;;;21.89;55.97;99889.19;5027526;28;4179;-56
2022/09/15 08:08:04;;;;;;;;;;;;;;;21.89;56.13;99881.28;5036822;28;4207;-54
2022/09/15 08:10:30;;;;;;;;;;;;;;;21.91;55.65;99884.22;5031273;28;4257;-54
2022/09/15 08:12:59;;;;;;;;;;;;;;;21.91;55.87;99895.00;5028494;28;4255;-55
2022/09/15 08:15:26;;;;;;;;;;;;;;;21.94;55.93;99887.88;5028737;28;4293;-53
2022/09/15 08:17:52;;;;;;;;;;;;;;;21.93;55.95;99895.06;5029555;28;4150;-54
2022/09/15 08:20:18;;;;;;;;;;;;;;;21.94;55.61;99894.38;5020561;28;4842;-55
2022/09/15 08:22:45;;;;;;;;;;;;;;;21.91;56.33;99895.72;5031626;28;5572;-55
2022/09/15 08:25:11;;;;;;;;;;;;;;;21.95;55.77;99903.75;5035689;28;4164;-56
2022/09/15 08:27:38;;;;;;;;;;;;;;;21.95;56.22;99900.88;5031348;28;4181;-61
2022/09/15 08:30:04;;;;;;;;;;;;;;;22.52;55.46;99908.00;5024091;28;4332;-65
2022/09/15 08:32:31;;;;;;;;;;;;;;;22.69;54.71;99909.09;5021673;28;4084;-65
2022/09/15 08:34:57;;;;;;;;;;;;;;;22.61;54.92;99902.41;5029497;28;4970;-65
2022/09/15 08:37:23;;;;;;;;;;;;;;;22.48;55.50;99901.41;5037748;28;4044;-68
2022/09/15 08:39:50;;;;;;;;;;;;;;;22.68;54.95;99901.13;5033926;28;5441;-64
2022/09/15 08:42:17;;;;;;;;;;;;;;;22.74;55.09;99904.13;5035665;28;4156;-66
2022/09/15 08:44:43;;;;;;;;;;;;;;;22.83;54.90;99905.03;5029842;28;5517;-65
2022/09/15 08:47:11;;;;;;;;;;;;;;;22.81;55.00;99911.50;5035543;28;4224;-66
2022/09/15 08:49:38;;;;;;;;;;;;;;;22.76;54.90;99907.06;5030205;28;5493;-65
2022/09/15 08:52:25;;;;;;;;;;;;;;;22.78;54.95;99915.78;5037537;28;4535;-66
2022/09/15 08:54:52;;;;;;;;;;;;;;;22.73;54.83;99905.56;5035948;28;4221;-67
2022/09/15 08:57:18;;;;;;;;;;;;;;;22.61;55.18;99906.03;5033602;28;5274;-65
2022/09/15 08:59:45;;;;;;;;;;;;;;;22.56;55.35;99901.56;5047507;28;4774;-66
2022/09/15 09:02:22;;;;;;;;;;;;;;;22.75;55.25;99891.19;5050117;28;5425;-64
2022/09/15 09:05:07;;;;;;;;;;;;;;;22.95;54.84;99900.28;5035983;28;5244;-62
2022/09/15 09:07:37;;;;;;;;;;;;;;;22.67;55.33;99900.38;5050291;28;4227;-62
2022/09/15 09:10:10;;;;;;;;;;;;;;;22.63;55.47;99896.69;5034341;28;4146;-61
2022/09/15 09:12:40;;;;;;;;;;;;;;;22.65;55.87;99891.69;5036696;28;4381;-62
2022/09/15 09:15:23;;;;;;;;;;;;;;;22.58;55.91;99899.47;5033441;28;4219;-62
2022/09/15 09:17:49;;;;;;;;;;;;;;;22.64;55.62;99895.28;5045788;28;5442;-62
2022/09/15 09:20:19;;;;;;;;;;;;;;;22.79;55.28;99905.69;5037635;28;4168;-63
2022/09/15 09:22:45;;;;;;;;;;;;;;;22.86;54.97;99898.63;5035381;28;5254;-63
2022/09/15 09:25:13;;;;;;;;;;;;;;;22.87;55.01;99893.59;5053351;28;4172;-63
2022/09/15 09:27:52;;;;;;;;;;;;;;;22.94;54.69;99895.91;5037401;28;4160;-62
2022/09/15 09:30:19;;;;;;;;;;;;;;;22.81;55.28;99894.19;5032487;28;4147;-62
2022/09/15 09:32:46;;;;;;;;;;;;;;;22.72;55.55;99895.44;5037647;28;5368;-62
2022/09/15 09:35:16;;;;;;;;;;;;;;;22.86;55.46;99895.75;5018008;28;5438;-66
2022/09/15 09:37:42;;;;;;;;;;;;;;;22.99;55.00;99888.81;5033773;28;4254;-65
2022/09/15 09:40:12;;;;;;;;;;;;;;;22.97;55.08;99885.84;5036094;28;4200;-64
2022/09/15 09:42:39;;;;;;;;;;;;;;;22.75;55.10;99889.03;5048956;28;4244;-61
2022/09/15 09:45:06;;;;;;;;;;;;;;;22.34;56.59;99887.41;5045962;28;5542;-61
2022/09/15 09:47:33;;;;;;;;;;;;;;;22.26;56.33;99892.97;5040010;28;4256;-62
2022/09/15 09:50:00;;;;;;;;;;;;;;;22.03;55.80;99889.53;5033140;28;5281;-57
2022/09/15 09:52:33;;;;;;;;;;;;;;;22.02;55.56;99882.31;5032240;28;5306;-57
2022/09/15 09:55:00;;;;;;;;;;;;;;;22.15;55.42;99878.31;5024980;28;4055;-58
2022/09/15 09:57:29;;;;;;;;;;;;;;;22.13;55.31;99889.78;5035547;28;4226;-59
2022/09/15 09:59:56;;;;;;;;;;;;;;;22.09;55.81;99881.03;5031237;28;5340;-57
2022/09/15 10:02:23;;;;;;;;;;;;;;;22.17;55.94;99887.00;5035430;28;4138;-57
2022/09/15 10:05:14;;;;;;;;;;;;;;;22.17;56.30;99892.78;5033779;28;4207;-57
2022/09/15 10:07:42;;;;;;;;;;;;;;;22.16;56.58;99891.28;5043853;28;5720;-57
2022/09/15 10:10:17;;;;;;;;;;;;;;;22.16;56.46;99891.28;5049467;28;4150;-57
2022/09/15 10:12:43;;;;;;;;;;;;;;;22.15;56.83;99884.06;5036575;28;4216;-58
2022/09/15 10:15:28;;;;;;;;;;;;;;;22.13;56.35;99892.66;5029806;28;4223;-57
2022/09/15 10:17:55;;;;;;;;;;;;;;;22.13;56.52;99897.72;5030837;28;5248;-58
2022/09/15 10:20:21;;;;;;;;;;;;;;;21.96;55.23;99893.69;5035054;28;4203;-57
2022/09/15 10:22:47;;;;;;;;;;;;;;;22.00;55.55;99885.16;5035476;28;5501;-57
2022/09/15 10:25:20;;;;;;;;;;;;;;;22.10;55.38;99881.75;5053137;28;4523;-57
2022/09/15 10:28:05;;;;;;;;;;;;;;;22.16;55.63;99876.88;5035569;28;4245;-57
2022/09/15 10:30:31;;;;;;;;;;;;;;;22.21;55.43;99882.75;5034783;28;4204;-58
2022/09/15 10:33:08;;;;;;;;;;;;;;;22.21;55.86;99876.97;5035968;28;4210;-58
2022/09/15 10:35:35;;;;;;;;;;;;;;;22.23;55.61;99877.78;5049831;28;4244;-58
2022/09/15 10:38:08;;;;;;;;;;;;;;;22.23;55.90;99877.06;5045183;28;4195;-58
2022/09/15 10:40:40;;;;;;;;;;;;;;;22.24;55.77;99875.63;5035618;28;4114;-57
2022/09/15 10:43:19;;;;;;;;;;;;;;;22.22;55.77;99882.09;5025351;28;5589;-58
2022/09/15 10:45:49;;;;;;;;;;;;;;;22.21;56.21;99886.38;5050105;28;4209;-58
2022/09/15 10:48:22;;;;;;;;;;;;;;;22.20;56.08;99875.53;5024619;28;5301;-58
2022/09/15 10:50:48;;;;;;;;;;;;;;;22.19;55.99;99877.66;5050798;28;4543;-58
2022/09/15 10:53:16;;;;;;;;;;;;;;;22.18;56.21;99879.81;5029974;28;5386;-58
2022/09/15 10:55:48;;;;;;;;;;;;;;;22.17;56.96;99880.47;5034273;28;4219;-58
2022/09/15 10:58:37;;;;;;;;;;;;;;;22.17;56.39;99880.47;5048453;28;4588;-56
2022/09/15 11:01:14;;;;;;;;;;;;;;;22.17;56.48;99881.25;5034706;28;4372;-50
2022/09/15 11:03:46;;;;;;;;;;;;;;;22.17;56.72;99875.47;5049544;28;4172;-55
2022/09/15 11:06:32;;;;;;;;;;;;;;;22.18;56.60;99874.03;5046082;28;4367;-56
2022/09/15 11:09:08;;;;;;;;;;;;;;;22.19;56.75;99877.66;5037138;28;4277;-58
2022/09/15 11:11:43;;;;;;;;;;;;;;;22.19;57.27;99877.66;5053721;28;5276;-56
2022/09/15 11:14:19;;;;;;;;;;;;;;;22.17;58.58;99881.25;5033080;28;4173;-57
2022/09/15 11:17:05;;;;;;;;;;;;;;;22.17;58.34;99871.84;5052873;28;5384;-58
2022/09/15 11:19:42;;;;;;;;;;;;;;;22.18;58.79;99876.19;5051133;28;5496;-54
2022/09/15 11:22:38;;;;;;;;;;;;;;;22.12;58.65;99879.66;5048990;28;4204;-58
2022/09/15 11:25:09;;;;;;;;;;;;;;;22.08;57.84;99873.81;5028509;28;4176;-58
2022/09/15 11:27:38;;;;;;;;;;;;;;;22.12;57.27;99871.00;5036735;28;4053;-58
2022/09/15 11:30:17;;;;;;;;;;;;;;;22.15;58.40;99869.66;5050967;28;4177;-59
2022/09/15 11:32:45;;;;;;;;;;;;;;;22.16;58.86;99881.91;5050408;28;5350;-59
2022/09/15 11:35:32;;;;;;;;;;;;;;;22.16;58.71;99874.00;5051493;28;4065;-58
2022/09/15 11:38:02;;;;;;;;;;;;;;;22.16;59.66;99876.16;5051987;28;4246;-59
2022/09/15 11:40:32;;;;;;;;;;;;;;;22.10;60.39;99876.72;5038110;28;4296;-59
2022/09/15 11:42:59;;;;;;;;;;;;;;;22.15;60.18;99883.31;5033274;28;5446;-58
2022/09/15 11:45:26;;;;;;;;;;;;;;;22.15;60.32;99874.66;5034797;28;4127;-59
2022/09/15 11:47:55;;;;;;;;;;;;;;;22.16;60.63;99879.03;5035770;28;5280;-59
2022/09/15 11:50:34;;;;;;;;;;;;;;;22.15;60.92;99878.31;5038982;28;4339;-58
2022/09/15 11:53:15;;;;;;;;;;;;;;;22.16;60.83;99874.00;5038450;28;4190;-59
2022/09/15 11:55:42;;;;;;;;;;;;;;;22.17;62.56;99881.25;5053526;28;4164;-59
2022/09/15 11:58:17;;;;;;;;;;;;;;;22.08;62.22;99873.81;5046870;28;4312;-59
2022/09/15 12:01:02;;;;;;;;;;;;;;;22.14;63.23;99871.06;5037911;28;4189;-58
2022/09/15 12:03:30;;;;;;;;;;;;;;;22.16;63.91;99871.09;5034579;28;4025;-57
2022/09/15 12:05:58;;;;;;;;;;;;;;;22.17;64.33;99866.81;5032282;28;4128;-59
2022/09/15 12:08:28;;;;;;;;;;;;;;;22.20;63.83;99869.75;5034897;28;4191;-63
2022/09/15 12:10:55;;;;;;;;;;;;;;;22.23;62.64;99882.81;5048472;28;4446;-64
2022/09/15 12:13:22;;;;;;;;;;;;;;;22.47;60.87;99879.75;5044313;28;4263;-72
2022/09/15 12:15:49;;;;;;;;;;;;;;;22.54;60.38;99876.31;5018285;28;4174;-74
2022/09/15 12:18:24;;;;;;;;;;;;;;;22.37;60.78;99875.22;5033663;28;4251;-68
2022/09/15 12:21:04;;;;;;;;;;;;;;;22.69;60.67;99873.72;5045356;28;4245;-71
2022/09/15 12:23:31;;;;;;;;;;;;;;;23.18;58.99;99863.19;5042634;28;4163;-68
2022/09/15 12:26:14;;;;;;;;;;;;;;;23.31;58.36;99859.09;5041575;28;4176;-68
2022/09/15 12:28:49;;;;;;;;;;;;;;;23.25;58.48;99870.56;5044042;28;4064;-68
2022/09/15 12:31:22;;;;;;;;;;;;;;;23.48;57.49;99876.72;5042504;28;4043;-67
2022/09/15 12:33:52;;;;;;;;;;;;;;;23.46;57.13;99883.22;5046487;28;4000;-67
2022/09/15 12:36:28;;;;;;;;;;;;;;;23.47;56.99;99875.28;5046661;28;4141;-70
2022/09/15 12:38:54;;;;;;;;;;;;;;;23.53;56.95;99889.84;5043743;28;4200;-67
2022/09/15 12:41:21;;;;;;;;;;;;;;;23.60;56.70;99888.50;5046998;28;4143;-63
2022/09/15 12:43:51;;;;;;;;;;;;;;;23.54;57.24;99879.72;5034870;28;4256;-70
2022/09/15 12:46:18;;;;;;;;;;;;;;;23.63;56.82;99892.88;5037406;28;4367;-67
2022/09/15 12:48:44;;;;;;;;;;;;;;;23.69;56.49;99878.56;5037589;28;4160;-68
2022/09/15 12:51:19;;;;;;;;;;;;;;;23.77;56.32;99884.47;5046423;28;4165;-68
2022/09/15 12:53:49;;;;;;;;;;;;;;;23.76;55.98;99876.53;5025416;28;4433;-74
2022/09/15 12:56:23;;;;;;;;;;;;;;;23.70;56.40;99885.78;5047161;28;4137;-71
2022/09/15 12:58:49;;;;;;;;;;;;;;;22.97;58.38;99880.06;5035734;28;4075;-64
2022/09/15 13:01:22;;;;;;;;;;;;;;;22.75;59.12;99873.88;5030277;28;4211;-63
2022/09/15 13:03:48;;;;;;;;;;;;;;;22.73;59.29;99873.81;5032979;28;4034;-63
2022/09/15 13:06:15;;;;;;;;;;;;;;;22.69;59.53;99871.56;5026147;28;4192;-65
2022/09/15 13:08:43;;;;;;;;;;;;;;;22.69;59.15;99868.69;5035867;28;4974;-67
2022/09/15 13:11:09;;;;;;;;;;;;;;;22.69;59.21;99867.97;5031019;28;4214;-67